sensor_id;sensor_type;location;lat;lon;timestamp;P1;durP1;ratioP1;P2;durP2;ratioP2
53519;SDS011;39397;53.204;5.778;2023-02-13T00:02:15;18.83;;;13.85;;
53519;SDS011;39397;53.204;5.778;2023-02-13T00:04:40;20.15;;;14.95;;
53519;SDS011;39397;53.204;5.778;2023-02-13T00:07:09;19.98;;;14.70;;
53519;SDS011;39397;53.204;5.778;2023-02-13T00:09:38;19.63;;;14.40;;
53519;SDS011;39397;53.204;5.778;2023-02-13T00:12:04;21.02;;;14.70;;
53519;SDS011;39397;53.204;5.778;2023-02-13T00:14:35;22.67;;;15.30;;
53519;SDS011;39397;53.204;5.778;2023-02-13T00:17:04;20.70;;;15.50;;
53519;SDS011;39397;53.204;5.778;2023-02-13T00:19:30;23.17;;;16.38;;
53519;SDS011;39397;53.204;5.778;2023-02-13T00:21:56;20.73;;;15.02;;
53519;SDS011;39397;53.204;5.778;2023-02-13T00:24:22;21.92;;;14.75;;
53519;SDS011;39397;53.204;5.778;2023-02-13T00:26:48;20.48;;;14.35;;
53519;SDS011;39397;53.204;5.778;2023-02-13T00:29:15;21.15;;;14.68;;
53519;SDS011;39397;53.204;5.778;2023-02-13T00:31:41;20.38;;;15.38;;
53519;SDS011;39397;53.204;5.778;2023-02-13T00:34:06;19.70;;;14.90;;
53519;SDS011;39397;53.204;5.778;2023-02-13T00:36:32;20.90;;;15.30;;
53519;SDS011;39397;53.204;5.778;2023-02-13T00:38:58;22.55;;;16.02;;
53519;SDS011;39397;53.204;5.778;2023-02-13T00:41:24;22.77;;;16.23;;
53519;SDS011;39397;53.204;5.778;2023-02-13T00:43:49;22.40;;;16.45;;
53519;SDS011;39397;53.204;5.778;2023-02-13T00:46:15;21.38;;;16.17;;
53519;SDS011;39397;53.204;5.778;2023-02-13T00:48:41;22.48;;;15.98;;
53519;SDS011;39397;53.204;5.778;2023-02-13T00:51:07;22.13;;;15.63;;
53519;SDS011;39397;53.204;5.778;2023-02-13T00:53:33;22.15;;;16.77;;
53519;SDS011;39397;53.204;5.778;2023-02-13T00:56:00;20.65;;;15.35;;
53519;SDS011;39397;53.204;5.778;2023-02-13T00:58:27;22.92;;;16.38;;
53519;SDS011;39397;53.204;5.778;2023-02-13T01:00:52;21.05;;;16.00;;
53519;SDS011;39397;53.204;5.778;2023-02-13T01:03:19;23.40;;;16.55;;
53519;SDS011;39397;53.204;5.778;2023-02-13T01:05:47;22.02;;;16.58;;
53519;SDS011;39397;53.204;5.778;2023-02-13T01:08:13;19.48;;;15.10;;
53519;SDS011;39397;53.204;5.778;2023-02-13T01:10:40;23.33;;;16.98;;
53519;SDS011;39397;53.204;5.778;2023-02-13T01:13:06;21.95;;;15.35;;
53519;SDS011;39397;53.204;5.778;2023-02-13T01:15:33;19.50;;;14.82;;
53519;SDS011;39397;53.204;5.778;2023-02-13T01:17:59;21.27;;;15.13;;
53519;SDS011;39397;53.204;5.778;2023-02-13T01:20:25;21.00;;;15.52;;
53519;SDS011;39397;53.204;5.778;2023-02-13T01:22:53;22.73;;;16.60;;
53519;SDS011;39397;53.204;5.778;2023-02-13T01:25:19;23.75;;;15.68;;
53519;SDS011;39397;53.204;5.778;2023-02-13T01:27:45;22.17;;;16.48;;
53519;SDS011;39397;53.204;5.778;2023-02-13T01:30:11;23.27;;;16.80;;
53519;SDS011;39397;53.204;5.778;2023-02-13T01:32:39;22.45;;;16.08;;
53519;SDS011;39397;53.204;5.778;2023-02-13T01:35:05;21.55;;;15.88;;
53519;SDS011;39397;53.204;5.778;2023-02-13T01:37:31;25.50;;;17.30;;
53519;SDS011;39397;53.204;5.778;2023-02-13T01:39:57;22.25;;;16.30;;
53519;SDS011;39397;53.204;5.778;2023-02-13T01:42:30;24.05;;;16.38;;
53519;SDS011;39397;53.204;5.778;2023-02-13T01:45:17;21.98;;;16.48;;
53519;SDS011;39397;53.204;5.778;2023-02-13T01:50:42;24.33;;;16.65;;
53519;SDS011;39397;53.204;5.778;2023-02-13T01:55:45;23.15;;;15.85;;
53519;SDS011;39397;53.204;5.778;2023-02-13T01:58:29;25.10;;;17.40;;
53519;SDS011;39397;53.204;5.778;2023-02-13T02:00:57;23.13;;;15.95;;
53519;SDS011;39397;53.204;5.778;2023-02-13T02:03:38;26.20;;;17.35;;
53519;SDS011;39397;53.204;5.778;2023-02-13T02:06:20;25.85;;;17.02;;
53519;SDS011;39397;53.204;5.778;2023-02-13T02:08:50;23.77;;;16.55;;
53519;SDS011;39397;53.204;5.778;2023-02-13T02:11:24;25.27;;;16.45;;
53519;SDS011;39397;53.204;5.778;2023-02-13T02:13:56;23.40;;;17.33;;
53519;SDS011;39397;53.204;5.778;2023-02-13T02:16:22;25.05;;;17.15;;
53519;SDS011;39397;53.204;5.778;2023-02-13T02:18:50;23.30;;;17.08;;
53519;SDS011;39397;53.204;5.778;2023-02-13T02:29:52;24.50;;;17.77;;
53519;SDS011;39397;53.204;5.778;2023-02-13T02:37:51;24.77;;;17.35;;
53519;SDS011;39397;53.204;5.778;2023-02-13T02:40:25;24.52;;;17.80;;
53519;SDS011;39397;53.204;5.778;2023-02-13T02:43:12;24.17;;;17.17;;
53519;SDS011;39397;53.204;5.778;2023-02-13T02:45:51;23.65;;;16.80;;
53519;SDS011;39397;53.204;5.778;2023-02-13T02:48:29;24.95;;;16.63;;
53519;SDS011;39397;53.204;5.778;2023-02-13T02:54:16;27.02;;;17.10;;
53519;SDS011;39397;53.204;5.778;2023-02-13T02:57:13;24.83;;;18.25;;
53519;SDS011;39397;53.204;5.778;2023-02-13T02:59:42;22.83;;;16.83;;
53519;SDS011;39397;53.204;5.778;2023-02-13T03:02:29;26.10;;;18.58;;
53519;SDS011;39397;53.204;5.778;2023-02-13T03:05:25;26.73;;;18.02;;
53519;SDS011;39397;53.204;5.778;2023-02-13T03:08:13;23.35;;;17.17;;
53519;SDS011;39397;53.204;5.778;2023-02-13T03:10:39;24.00;;;18.13;;
53519;SDS011;39397;53.204;5.778;2023-02-13T03:16:11;23.48;;;16.27;;
53519;SDS011;39397;53.204;5.778;2023-02-13T03:19:03;26.73;;;18.42;;
53519;SDS011;39397;53.204;5.778;2023-02-13T03:25:33;21.05;;;15.98;;
53519;SDS011;39397;53.204;5.778;2023-02-13T03:31:16;24.95;;;18.00;;
53519;SDS011;39397;53.204;5.778;2023-02-13T03:34:00;27.58;;;18.20;;
53519;SDS011;39397;53.204;5.778;2023-02-13T03:44:30;24.13;;;17.90;;
53519;SDS011;39397;53.204;5.778;2023-02-13T03:47:01;28.10;;;17.42;;
53519;SDS011;39397;53.204;5.778;2023-02-13T03:49:30;22.42;;;16.60;;
53519;SDS011;39397;53.204;5.778;2023-02-13T03:55:06;24.30;;;17.35;;
53519;SDS011;39397;53.204;5.778;2023-02-13T03:57:59;25.40;;;18.40;;
53519;SDS011;39397;53.204;5.778;2023-02-13T04:00:57;25.00;;;17.60;;
53519;SDS011;39397;53.204;5.778;2023-02-13T04:06:15;25.33;;;17.40;;
53519;SDS011;39397;53.204;5.778;2023-02-13T04:08:48;25.65;;;18.25;;
53519;SDS011;39397;53.204;5.778;2023-02-13T04:11:14;23.58;;;17.50;;
53519;SDS011;39397;53.204;5.778;2023-02-13T04:14:00;23.48;;;16.75;;
53519;SDS011;39397;53.204;5.778;2023-02-13T04:19:03;24.98;;;17.17;;
53519;SDS011;39397;53.204;5.778;2023-02-13T04:21:33;26.85;;;17.63;;
53519;SDS011;39397;53.204;5.778;2023-02-13T04:24:00;23.77;;;17.23;;
53519;SDS011;39397;53.204;5.778;2023-02-13T04:26:28;23.42;;;17.08;;
53519;SDS011;39397;53.204;5.778;2023-02-13T04:28:59;24.05;;;17.77;;
53519;SDS011;39397;53.204;5.778;2023-02-13T04:31:24;24.70;;;17.83;;
53519;SDS011;39397;53.204;5.778;2023-02-13T04:33:50;24.92;;;17.52;;
53519;SDS011;39397;53.204;5.778;2023-02-13T04:36:16;26.85;;;19.73;;
53519;SDS011;39397;53.204;5.778;2023-02-13T04:38:41;27.63;;;18.70;;
53519;SDS011;39397;53.204;5.778;2023-02-13T04:41:09;25.55;;;17.13;;
53519;SDS011;39397;53.204;5.778;2023-02-13T04:43:35;27.52;;;17.98;;
53519;SDS011;39397;53.204;5.778;2023-02-13T04:46:01;25.95;;;18.13;;
53519;SDS011;39397;53.204;5.778;2023-02-13T04:48:27;29.38;;;20.00;;
53519;SDS011;39397;53.204;5.778;2023-02-13T04:50:53;26.45;;;18.58;;
53519;SDS011;39397;53.204;5.778;2023-02-13T04:53:18;26.25;;;18.75;;
53519;SDS011;39397;53.204;5.778;2023-02-13T04:55:44;25.45;;;17.00;;
53519;SDS011;39397;53.204;5.778;2023-02-13T04:58:10;27.65;;;19.50;;
53519;SDS011;39397;53.204;5.778;2023-02-13T05:00:35;27.70;;;18.48;;
53519;SDS011;39397;53.204;5.778;2023-02-13T05:03:09;27.23;;;18.48;;
53519;SDS011;39397;53.204;5.778;2023-02-13T05:05:37;26.85;;;17.60;;
53519;SDS011;39397;53.204;5.778;2023-02-13T05:08:05;25.80;;;18.33;;
53519;SDS011;39397;53.204;5.778;2023-02-13T05:10:32;26.73;;;18.95;;
53519;SDS011;39397;53.204;5.778;2023-02-13T05:12:58;25.63;;;18.67;;
53519;SDS011;39397;53.204;5.778;2023-02-13T05:15:24;25.55;;;18.08;;
53519;SDS011;39397;53.204;5.778;2023-02-13T05:17:50;27.83;;;19.20;;
53519;SDS011;39397;53.204;5.778;2023-02-13T05:20:17;26.63;;;18.83;;
53519;SDS011;39397;53.204;5.778;2023-02-13T05:22:46;27.88;;;19.23;;
53519;SDS011;39397;53.204;5.778;2023-02-13T05:25:33;25.48;;;18.50;;
53519;SDS011;39397;53.204;5.778;2023-02-13T05:27:59;28.27;;;18.52;;
53519;SDS011;39397;53.204;5.778;2023-02-13T05:30:25;28.13;;;18.23;;
53519;SDS011;39397;53.204;5.778;2023-02-13T05:32:51;30.10;;;18.80;;
53519;SDS011;39397;53.204;5.778;2023-02-13T05:35:17;28.45;;;19.35;;
53519;SDS011;39397;53.204;5.778;2023-02-13T05:37:43;26.02;;;18.20;;
53519;SDS011;39397;53.204;5.778;2023-02-13T05:40:09;30.65;;;19.75;;
53519;SDS011;39397;53.204;5.778;2023-02-13T05:42:37;33.22;;;20.05;;
53519;SDS011;39397;53.204;5.778;2023-02-13T05:45:04;26.48;;;17.38;;
53519;SDS011;39397;53.204;5.778;2023-02-13T05:47:30;28.83;;;19.42;;
53519;SDS011;39397;53.204;5.778;2023-02-13T05:49:56;29.58;;;19.98;;
53519;SDS011;39397;53.204;5.778;2023-02-13T05:52:22;25.17;;;17.90;;
53519;SDS011;39397;53.204;5.778;2023-02-13T05:54:48;27.10;;;17.95;;
53519;SDS011;39397;53.204;5.778;2023-02-13T05:57:13;26.33;;;18.65;;
53519;SDS011;39397;53.204;5.778;2023-02-13T05:59:39;31.00;;;19.85;;
53519;SDS011;39397;53.204;5.778;2023-02-13T06:02:05;31.25;;;18.85;;
53519;SDS011;39397;53.204;5.778;2023-02-13T06:04:30;26.92;;;18.73;;
53519;SDS011;39397;53.204;5.778;2023-02-13T06:06:56;28.48;;;19.63;;
53519;SDS011;39397;53.204;5.778;2023-02-13T06:09:22;25.73;;;18.33;;
53519;SDS011;39397;53.204;5.778;2023-02-13T06:11:47;26.27;;;18.23;;
53519;SDS011;39397;53.204;5.778;2023-02-13T06:14:13;27.25;;;19.17;;
53519;SDS011;39397;53.204;5.778;2023-02-13T06:16:39;27.23;;;19.23;;
53519;SDS011;39397;53.204;5.778;2023-02-13T06:19:05;26.42;;;18.38;;
53519;SDS011;39397;53.204;5.778;2023-02-13T06:21:31;26.17;;;18.75;;
53519;SDS011;39397;53.204;5.778;2023-02-13T06:24:05;28.13;;;18.08;;
53519;SDS011;39397;53.204;5.778;2023-02-13T06:26:32;31.45;;;19.80;;
53519;SDS011;39397;53.204;5.778;2023-02-13T06:28:58;27.20;;;18.42;;
53519;SDS011;39397;53.204;5.778;2023-02-13T06:31:23;33.05;;;20.45;;
53519;SDS011;39397;53.204;5.778;2023-02-13T06:33:50;33.08;;;20.70;;
53519;SDS011;39397;53.204;5.778;2023-02-13T06:36:16;28.67;;;19.13;;
53519;SDS011;39397;53.204;5.778;2023-02-13T06:38:42;30.60;;;20.48;;
53519;SDS011;39397;53.204;5.778;2023-02-13T06:41:07;28.77;;;19.33;;
53519;SDS011;39397;53.204;5.778;2023-02-13T06:43:34;29.70;;;20.05;;
53519;SDS011;39397;53.204;5.778;2023-02-13T06:46:03;32.15;;;20.63;;
53519;SDS011;39397;53.204;5.778;2023-02-13T06:48:32;28.60;;;20.25;;
53519;SDS011;39397;53.204;5.778;2023-02-13T06:50:58;27.83;;;19.17;;
53519;SDS011;39397;53.204;5.778;2023-02-13T06:53:26;30.50;;;20.55;;
53519;SDS011;39397;53.204;5.778;2023-02-13T06:55:52;29.88;;;19.70;;
53519;SDS011;39397;53.204;5.778;2023-02-13T06:58:20;31.52;;;20.42;;
53519;SDS011;39397;53.204;5.778;2023-02-13T07:00:46;28.50;;;19.27;;
53519;SDS011;39397;53.204;5.778;2023-02-13T07:03:12;30.08;;;20.55;;
53519;SDS011;39397;53.204;5.778;2023-02-13T07:05:38;31.60;;;20.23;;
53519;SDS011;39397;53.204;5.778;2023-02-13T07:08:05;29.00;;;20.38;;
53519;SDS011;39397;53.204;5.778;2023-02-13T07:10:32;32.35;;;21.35;;
53519;SDS011;39397;53.204;5.778;2023-02-13T07:12:57;28.77;;;20.58;;
53519;SDS011;39397;53.204;5.778;2023-02-13T07:15:23;30.20;;;19.23;;
53519;SDS011;39397;53.204;5.778;2023-02-13T07:17:55;34.28;;;20.95;;
53519;SDS011;39397;53.204;5.778;2023-02-13T07:20:22;29.25;;;20.67;;
53519;SDS011;39397;53.204;5.778;2023-02-13T07:22:48;28.73;;;18.95;;
53519;SDS011;39397;53.204;5.778;2023-02-13T07:25:13;31.88;;;22.45;;
53519;SDS011;39397;53.204;5.778;2023-02-13T07:27:39;30.55;;;22.23;;
53519;SDS011;39397;53.204;5.778;2023-02-13T07:30:05;30.83;;;21.10;;
53519;SDS011;39397;53.204;5.778;2023-02-13T07:32:31;33.78;;;22.00;;
53519;SDS011;39397;53.204;5.778;2023-02-13T07:34:57;30.40;;;21.52;;
53519;SDS011;39397;53.204;5.778;2023-02-13T07:37:22;29.33;;;20.73;;
53519;SDS011;39397;53.204;5.778;2023-02-13T07:39:48;30.90;;;21.35;;
53519;SDS011;39397;53.204;5.778;2023-02-13T07:42:14;30.08;;;20.70;;
53519;SDS011;39397;53.204;5.778;2023-02-13T07:44:39;29.77;;;20.15;;
53519;SDS011;39397;53.204;5.778;2023-02-13T07:47:05;29.70;;;21.10;;
53519;SDS011;39397;53.204;5.778;2023-02-13T07:49:32;30.48;;;20.67;;
53519;SDS011;39397;53.204;5.778;2023-02-13T07:51:58;27.05;;;19.17;;
53519;SDS011;39397;53.204;5.778;2023-02-13T07:54:24;31.38;;;19.33;;
53519;SDS011;39397;53.204;5.778;2023-02-13T07:56:49;28.30;;;19.33;;
53519;SDS011;39397;53.204;5.778;2023-02-13T07:59:15;28.63;;;19.75;;
53519;SDS011;39397;53.204;5.778;2023-02-13T08:01:41;29.15;;;18.52;;
53519;SDS011;39397;53.204;5.778;2023-02-13T08:04:07;30.95;;;20.33;;
53519;SDS011;39397;53.204;5.778;2023-02-13T08:06:32;27.45;;;19.25;;
53519;SDS011;39397;53.204;5.778;2023-02-13T08:08:58;30.77;;;20.38;;
53519;SDS011;39397;53.204;5.778;2023-02-13T08:11:42;31.33;;;19.73;;
53519;SDS011;39397;53.204;5.778;2023-02-13T08:14:21;27.25;;;18.95;;
53519;SDS011;39397;53.204;5.778;2023-02-13T08:16:48;26.42;;;18.67;;
53519;SDS011;39397;53.204;5.778;2023-02-13T08:19:14;27.40;;;18.77;;
53519;SDS011;39397;53.204;5.778;2023-02-13T08:21:39;29.30;;;19.55;;
53519;SDS011;39397;53.204;5.778;2023-02-13T08:24:05;26.83;;;19.60;;
53519;SDS011;39397;53.204;5.778;2023-02-13T08:26:31;27.40;;;19.38;;
53519;SDS011;39397;53.204;5.778;2023-02-13T08:28:58;28.58;;;19.27;;
53519;SDS011;39397;53.204;5.778;2023-02-13T08:31:24;27.50;;;19.27;;
53519;SDS011;39397;53.204;5.778;2023-02-13T08:33:50;28.27;;;19.40;;
53519;SDS011;39397;53.204;5.778;2023-02-13T08:36:16;30.73;;;18.42;;
53519;SDS011;39397;53.204;5.778;2023-02-13T08:38:45;26.67;;;18.65;;
53519;SDS011;39397;53.204;5.778;2023-02-13T08:41:11;28.13;;;17.35;;
53519;SDS011;39397;53.204;5.778;2023-02-13T08:43:37;28.77;;;18.95;;
53519;SDS011;39397;53.204;5.778;2023-02-13T08:46:03;31.13;;;19.00;;
53519;SDS011;39397;53.204;5.778;2023-02-13T08:48:29;29.98;;;19.25;;
53519;SDS011;39397;53.204;5.778;2023-02-13T08:50:55;27.02;;;18.73;;
53519;SDS011;39397;53.204;5.778;2023-02-13T08:53:21;30.15;;;20.17;;
53519;SDS011;39397;53.204;5.778;2023-02-13T08:55:54;25.38;;;17.40;;
53519;SDS011;39397;53.204;5.778;2023-02-13T08:58:21;28.13;;;18.73;;
53519;SDS011;39397;53.204;5.778;2023-02-13T09:00:47;26.67;;;18.33;;
53519;SDS011;39397;53.204;5.778;2023-02-13T09:03:13;27.13;;;17.88;;
53519;SDS011;39397;53.204;5.778;2023-02-13T09:05:39;28.55;;;17.80;;
53519;SDS011;39397;53.204;5.778;2023-02-13T09:08:04;26.33;;;18.50;;
53519;SDS011;39397;53.204;5.778;2023-02-13T09:10:35;26.00;;;18.10;;
53519;SDS011;39397;53.204;5.778;2023-02-13T09:13:02;29.15;;;18.10;;
53519;SDS011;39397;53.204;5.778;2023-02-13T09:15:28;28.42;;;16.92;;
53519;SDS011;39397;53.204;5.778;2023-02-13T09:17:55;25.33;;;17.15;;
53519;SDS011;39397;53.204;5.778;2023-02-13T09:20:21;28.95;;;17.75;;
53519;SDS011;39397;53.204;5.778;2023-02-13T09:22:46;28.48;;;18.80;;
53519;SDS011;39397;53.204;5.778;2023-02-13T09:25:12;28.48;;;17.98;;
53519;SDS011;39397;53.204;5.778;2023-02-13T09:27:38;29.15;;;19.67;;
53519;SDS011;39397;53.204;5.778;2023-02-13T09:30:04;35.15;;;22.05;;
53519;SDS011;39397;53.204;5.778;2023-02-13T09:32:31;28.65;;;18.13;;
53519;SDS011;39397;53.204;5.778;2023-02-13T09:34:58;29.67;;;18.33;;
53519;SDS011;39397;53.204;5.778;2023-02-13T09:37:24;32.50;;;19.35;;
53519;SDS011;39397;53.204;5.778;2023-02-13T09:39:51;27.75;;;19.30;;
53519;SDS011;39397;53.204;5.778;2023-02-13T09:44:49;31.65;;;19.88;;
53519;SDS011;39397;53.204;5.778;2023-02-13T09:47:27;26.88;;;17.90;;
53519;SDS011;39397;53.204;5.778;2023-02-13T09:54:57;27.77;;;17.83;;
53519;SDS011;39397;53.204;5.778;2023-02-13T10:00:32;30.83;;;19.13;;
53519;SDS011;39397;53.204;5.778;2023-02-13T10:05:41;28.05;;;17.33;;
53519;SDS011;39397;53.204;5.778;2023-02-13T10:08:40;28.13;;;18.65;;
53519;SDS011;39397;53.204;5.778;2023-02-13T10:14:18;28.77;;;18.92;;
53519;SDS011;39397;53.204;5.778;2023-02-13T10:19:45;28.80;;;18.50;;
53519;SDS011;39397;53.204;5.778;2023-02-13T10:22:20;27.50;;;18.02;;
53519;SDS011;39397;53.204;5.778;2023-02-13T10:27:54;29.30;;;18.55;;
53519;SDS011;39397;53.204;5.778;2023-02-13T10:33:05;28.02;;;17.92;;
53519;SDS011;39397;53.204;5.778;2023-02-13T10:38:27;28.70;;;18.77;;
53519;SDS011;39397;53.204;5.778;2023-02-13T10:44:22;26.70;;;17.95;;
53519;SDS011;39397;53.204;5.778;2023-02-13T10:47:25;27.92;;;18.08;;
53519;SDS011;39397;53.204;5.778;2023-02-13T10:55:42;29.30;;;17.92;;
53519;SDS011;39397;53.204;5.778;2023-02-13T11:03:39;27.40;;;18.15;;
53519;SDS011;39397;53.204;5.778;2023-02-13T11:06:07;26.08;;;17.33;;
53519;SDS011;39397;53.204;5.778;2023-02-13T11:08:42;25.48;;;17.67;;
53519;SDS011;39397;53.204;5.778;2023-02-13T11:14:09;23.58;;;16.35;;
53519;SDS011;39397;53.204;5.778;2023-02-13T11:16:51;24.08;;;16.77;;
53519;SDS011;39397;53.204;5.778;2023-02-13T11:19:39;23.58;;;16.33;;
53519;SDS011;39397;53.204;5.778;2023-02-13T11:22:29;26.17;;;16.38;;
53519;SDS011;39397;53.204;5.778;2023-02-13T11:27:32;26.08;;;16.92;;
53519;SDS011;39397;53.204;5.778;2023-02-13T11:30:03;24.73;;;16.55;;
53519;SDS011;39397;53.204;5.778;2023-02-13T11:32:58;24.38;;;16.20;;
53519;SDS011;39397;53.204;5.778;2023-02-13T11:35:27;25.20;;;16.33;;
53519;SDS011;39397;53.204;5.778;2023-02-13T11:40:38;24.30;;;16.35;;
53519;SDS011;39397;53.204;5.778;2023-02-13T11:43:13;24.08;;;16.40;;
53519;SDS011;39397;53.204;5.778;2023-02-13T11:45:43;23.27;;;15.60;;
53519;SDS011;39397;53.204;5.778;2023-02-13T11:48:17;24.00;;;16.20;;
53519;SDS011;39397;53.204;5.778;2023-02-13T11:50:50;25.38;;;16.58;;
53519;SDS011;39397;53.204;5.778;2023-02-13T11:53:18;25.85;;;16.75;;
53519;SDS011;39397;53.204;5.778;2023-02-13T11:56:05;24.50;;;16.48;;
53519;SDS011;39397;53.204;5.778;2023-02-13T11:58:31;26.83;;;16.67;;
53519;SDS011;39397;53.204;5.778;2023-02-13T12:01:06;24.95;;;16.90;;
53519;SDS011;39397;53.204;5.778;2023-02-13T12:03:35;22.95;;;15.80;;
53519;SDS011;39397;53.204;5.778;2023-02-13T12:06:12;27.95;;;17.92;;
53519;SDS011;39397;53.204;5.778;2023-02-13T12:08:46;27.10;;;17.40;;
53519;SDS011;39397;53.204;5.778;2023-02-13T12:13:46;23.75;;;17.08;;
53519;SDS011;39397;53.204;5.778;2023-02-13T12:19:03;23.98;;;16.38;;
53519;SDS011;39397;53.204;5.778;2023-02-13T12:21:43;25.13;;;16.90;;
53519;SDS011;39397;53.204;5.778;2023-02-13T12:30:18;24.85;;;16.42;;
53519;SDS011;39397;53.204;5.778;2023-02-13T12:33:29;26.80;;;17.38;;
53519;SDS011;39397;53.204;5.778;2023-02-13T12:36:25;25.45;;;17.75;;
53519;SDS011;39397;53.204;5.778;2023-02-13T12:42:05;28.15;;;18.67;;
53519;SDS011;39397;53.204;5.778;2023-02-13T12:56:36;26.65;;;17.48;;
53519;SDS011;39397;53.204;5.778;2023-02-13T13:04:51;26.58;;;17.67;;
53519;SDS011;39397;53.204;5.778;2023-02-13T13:16:32;26.48;;;17.23;;
53519;SDS011;39397;53.204;5.778;2023-02-13T13:19:37;25.38;;;17.35;;
53519;SDS011;39397;53.204;5.778;2023-02-13T13:22:20;24.38;;;16.67;;
53519;SDS011;39397;53.204;5.778;2023-02-13T13:25:11;25.40;;;17.33;;
53519;SDS011;39397;53.204;5.778;2023-02-13T13:27:55;27.73;;;18.40;;
53519;SDS011;39397;53.204;5.778;2023-02-13T13:30:30;24.52;;;17.02;;
53519;SDS011;39397;53.204;5.778;2023-02-13T13:33:02;27.80;;;17.13;;
53519;SDS011;39397;53.204;5.778;2023-02-13T13:35:38;25.08;;;16.80;;
53519;SDS011;39397;53.204;5.778;2023-02-13T13:40:51;24.52;;;16.95;;
53519;SDS011;39397;53.204;5.778;2023-02-13T13:46:55;28.00;;;17.77;;
53519;SDS011;39397;53.204;5.778;2023-02-13T13:52:22;25.38;;;18.60;;
53519;SDS011;39397;53.204;5.778;2023-02-13T13:54:57;24.23;;;17.17;;
53519;SDS011;39397;53.204;5.778;2023-02-13T14:03:19;28.77;;;18.70;;
53519;SDS011;39397;53.204;5.778;2023-02-13T14:05:58;26.52;;;18.55;;
53519;SDS011;39397;53.204;5.778;2023-02-13T14:11:04;25.20;;;18.13;;
53519;SDS011;39397;53.204;5.778;2023-02-13T14:13:40;24.80;;;18.35;;
53519;SDS011;39397;53.204;5.778;2023-02-13T14:16:10;25.27;;;18.75;;
53519;SDS011;39397;53.204;5.778;2023-02-13T14:18:36;25.63;;;18.75;;
53519;SDS011;39397;53.204;5.778;2023-02-13T14:21:08;24.73;;;18.50;;
53519;SDS011;39397;53.204;5.778;2023-02-13T14:23:46;27.15;;;19.35;;
53519;SDS011;39397;53.204;5.778;2023-02-13T14:33:56;28.88;;;19.48;;
53519;SDS011;39397;53.204;5.778;2023-02-13T14:36:32;28.23;;;20.27;;
53519;SDS011;39397;53.204;5.778;2023-02-13T14:39:01;27.33;;;20.20;;
53519;SDS011;39397;53.204;5.778;2023-02-13T14:44:12;26.60;;;19.88;;
53519;SDS011;39397;53.204;5.778;2023-02-13T14:46:43;29.70;;;19.95;;
53519;SDS011;39397;53.204;5.778;2023-02-13T14:51:49;25.48;;;19.55;;
53519;SDS011;39397;53.204;5.778;2023-02-13T14:54:41;26.75;;;18.58;;
53519;SDS011;39397;53.204;5.778;2023-02-13T14:57:20;26.73;;;19.65;;
53519;SDS011;39397;53.204;5.778;2023-02-13T14:59:52;28.02;;;20.02;;
53519;SDS011;39397;53.204;5.778;2023-02-13T15:02:44;26.67;;;21.48;;
53519;SDS011;39397;53.204;5.778;2023-02-13T15:05:17;27.88;;;21.40;;
53519;SDS011;39397;53.204;5.778;2023-02-13T15:07:51;26.48;;;20.27;;
53519;SDS011;39397;53.204;5.778;2023-02-13T15:15:39;28.25;;;21.02;;
53519;SDS011;39397;53.204;5.778;2023-02-13T15:18:10;30.75;;;22.92;;
53519;SDS011;39397;53.204;5.778;2023-02-13T15:20:44;28.88;;;22.45;;
53519;SDS011;39397;53.204;5.778;2023-02-13T15:23:24;31.35;;;23.50;;
53519;SDS011;39397;53.204;5.778;2023-02-13T15:28:29;28.08;;;22.90;;
53519;SDS011;39397;53.204;5.778;2023-02-13T15:30:58;28.55;;;23.23;;
53519;SDS011;39397;53.204;5.778;2023-02-13T15:33:33;34.88;;;27.50;;
53519;SDS011;39397;53.204;5.778;2023-02-13T15:36:52;30.70;;;24.15;;
53519;SDS011;39397;53.204;5.778;2023-02-13T15:39:04;26.40;;;21.98;;
53519;SDS011;39397;53.204;5.778;2023-02-13T15:41:41;28.33;;;23.15;;
53519;SDS011;39397;53.204;5.778;2023-02-13T15:44:18;31.98;;;23.15;;
53519;SDS011;39397;53.204;5.778;2023-02-13T15:46:47;27.42;;;21.92;;
53519;SDS011;39397;53.204;5.778;2023-02-13T15:49:16;28.45;;;23.88;;
53519;SDS011;39397;53.204;5.778;2023-02-13T15:51:44;28.33;;;21.77;;
53519;SDS011;39397;53.204;5.778;2023-02-13T15:56:58;28.88;;;23.67;;
53519;SDS011;39397;53.204;5.778;2023-02-13T15:59:28;29.73;;;24.30;;
53519;SDS011;39397;53.204;5.778;2023-02-13T16:01:58;30.73;;;23.77;;
53519;SDS011;39397;53.204;5.778;2023-02-13T16:04:26;28.25;;;22.52;;
53519;SDS011;39397;53.204;5.778;2023-02-13T16:06:54;30.20;;;23.50;;
53519;SDS011;39397;53.204;5.778;2023-02-13T16:12:05;27.30;;;22.40;;
53519;SDS011;39397;53.204;5.778;2023-02-13T16:14:46;30.10;;;21.52;;
53519;SDS011;39397;53.204;5.778;2023-02-13T16:19:58;30.02;;;24.05;;
53519;SDS011;39397;53.204;5.778;2023-02-13T16:25:00;33.58;;;25.27;;
53519;SDS011;39397;53.204;5.778;2023-02-13T16:27:38;31.60;;;25.63;;
53519;SDS011;39397;53.204;5.778;2023-02-13T16:30:35;34.28;;;26.30;;
53519;SDS011;39397;53.204;5.778;2023-02-13T16:33:08;35.75;;;26.73;;
53519;SDS011;39397;53.204;5.778;2023-02-13T16:35:41;34.88;;;24.50;;
53519;SDS011;39397;53.204;5.778;2023-02-13T16:40:49;32.17;;;25.05;;
53519;SDS011;39397;53.204;5.778;2023-02-13T16:54:33;36.00;;;26.90;;
53519;SDS011;39397;53.204;5.778;2023-02-13T17:04:44;35.47;;;25.38;;
53519;SDS011;39397;53.204;5.778;2023-02-13T17:07:16;38.88;;;29.30;;
53519;SDS011;39397;53.204;5.778;2023-02-13T17:09:50;37.83;;;27.75;;
53519;SDS011;39397;53.204;5.778;2023-02-13T17:12:18;39.60;;;28.40;;
53519;SDS011;39397;53.204;5.778;2023-02-13T17:14:44;41.03;;;29.45;;
53519;SDS011;39397;53.204;5.778;2023-02-13T17:17:11;47.95;;;34.00;;
53519;SDS011;39397;53.204;5.778;2023-02-13T17:19:39;46.50;;;32.17;;
53519;SDS011;39397;53.204;5.778;2023-02-13T17:22:05;42.53;;;31.40;;
53519;SDS011;39397;53.204;5.778;2023-02-13T17:24:31;46.95;;;35.63;;
53519;SDS011;39397;53.204;5.778;2023-02-13T17:26:57;48.38;;;34.55;;
53519;SDS011;39397;53.204;5.778;2023-02-13T17:29:23;53.80;;;36.90;;
53519;SDS011;39397;53.204;5.778;2023-02-13T17:31:50;52.65;;;34.95;;
53519;SDS011;39397;53.204;5.778;2023-02-13T17:34:19;69.50;;;44.15;;
53519;SDS011;39397;53.204;5.778;2023-02-13T17:36:45;60.28;;;41.17;;
53519;SDS011;39397;53.204;5.778;2023-02-13T17:39:10;67.75;;;43.83;;
53519;SDS011;39397;53.204;5.778;2023-02-13T17:41:36;59.42;;;40.63;;
53519;SDS011;39397;53.204;5.778;2023-02-13T17:44:02;56.92;;;38.58;;
53519;SDS011;39397;53.204;5.778;2023-02-13T17:46:28;56.40;;;38.58;;
53519;SDS011;39397;53.204;5.778;2023-02-13T17:48:54;58.95;;;42.33;;
53519;SDS011;39397;53.204;5.778;2023-02-13T17:51:20;57.97;;;41.28;;
53519;SDS011;39397;53.204;5.778;2023-02-13T17:53:46;53.22;;;37.72;;
53519;SDS011;39397;53.204;5.778;2023-02-13T17:56:14;51.13;;;34.58;;
53519;SDS011;39397;53.204;5.778;2023-02-13T17:58:39;53.92;;;36.80;;
53519;SDS011;39397;53.204;5.778;2023-02-13T18:01:08;52.28;;;35.10;;
53519;SDS011;39397;53.204;5.778;2023-02-13T18:03:34;49.90;;;35.42;;
53519;SDS011;39397;53.204;5.778;2023-02-13T18:06:00;49.65;;;35.45;;
53519;SDS011;39397;53.204;5.778;2023-02-13T18:08:25;50.38;;;34.45;;
53519;SDS011;39397;53.204;5.778;2023-02-13T18:10:51;44.97;;;33.35;;
53519;SDS011;39397;53.204;5.778;2023-02-13T18:13:17;50.45;;;34.97;;